»·PEaware :: N232KW KHLN-KMSO

N232KW :: KHLN-KMSO

FLIGHT INFORMATION

Flight Status: Arrived
Operator: Privately registered:
United States
More flights under this callsign
Pilot: Sally S. (18014)
Aircraft: MOONEY M-20 201 202 205 220 ATS MSE
(M20P)
More flights by this aircraft type
Origin: KHLN Helena Regl
United States
Destination: KMSO Missoula Intl
United States
More flights between these airports :: More routes between these airports
Route: +HLN4 HLN V2 MSO
File this flight plan on PilotEdge
Remarks:
Altitude:
(Current/Filed)
12,000ft
Speed:
(Current/Filed)
150kts
Departed: 08-Apr-18 08:57 AM
Arrived: 08-Apr-18 09:47 AM
Distance/Time
Traveled:
89nm/0:50
Distance/Time
To Go:
Arrived

Flight Plot

Page will automatically refresh every two minutes.

Flight plan parsing failed; only flown route is shown


Map Options




Map Legend


Flown Route
Filed Route
Departure Airport
Arrival Airport
Navaid (VOR, NDB)
Fix

Horizontal Profiles

Position Reports

Time Latitude Longitude Heading Altitude Ground
Speed
08-Apr-18 08:30 46.602697 -111.981978 356 3877ft 0kts
08-Apr-18 08:31 46.602697 -111.981978 356 3877ft 0kts
08-Apr-18 08:32 46.602697 -111.981978 356 3877ft 0kts
08-Apr-18 08:33 46.602697 -111.981978 356 3877ft 0kts
08-Apr-18 08:34 46.602697 -111.981978 356 3877ft 0kts
08-Apr-18 08:35 46.602697 -111.981978 356 3877ft 0kts
08-Apr-18 08:36 46.602697 -111.981978 356 3877ft 0kts
08-Apr-18 08:37 46.602697 -111.981978 356 3877ft 0kts
08-Apr-18 08:38 46.602697 -111.981978 356 3877ft 0kts
08-Apr-18 08:39 46.602697 -111.981978 356 3877ft 0kts
08-Apr-18 08:40 46.602697 -111.981978 356 3877ft 0kts
08-Apr-18 08:41 46.602697 -111.981978 356 3877ft 0kts
08-Apr-18 08:42 46.602697 -111.981978 356 3877ft 0kts
08-Apr-18 08:43 46.602697 -111.981978 356 3877ft 0kts
08-Apr-18 08:44 46.602697 -111.981978 356 3877ft 0kts
08-Apr-18 08:45 46.602697 -111.981978 356 3877ft 0kts
08-Apr-18 08:46 46.602697 -111.981978 356 3877ft 0kts
08-Apr-18 08:47 46.602697 -111.981978 356 3877ft 0kts
08-Apr-18 08:48 46.602697 -111.981978 356 3877ft 0kts
08-Apr-18 08:49 46.602697 -111.981978 356 3877ft 0kts
08-Apr-18 08:50 46.602697 -111.981978 356 3877ft 0kts
08-Apr-18 08:51 46.602697 -111.981978 356 3877ft 0kts
08-Apr-18 08:52 46.603573 -111.977905 96 3877ft 20kts
08-Apr-18 08:53 46.602626 -111.968642 102 3877ft 24kts
08-Apr-18 08:54 46.602103 -111.963398 34 3877ft 0kts
08-Apr-18 08:55 46.602760 -111.963063 359 3877ft 12kts
08-Apr-18 08:56 46.606872 -111.992654 290 4470ft 106kts
08-Apr-18 08:57 46.629155 -111.996818 17 5880ft 96kts
08-Apr-18 08:58 46.653707 -111.981355 17 7104ft 98kts
08-Apr-18 08:59 46.678694 -111.969548 352 8232ft 93kts
08-Apr-18 09:00 46.685341 -111.987356 208 9280ft 114kts
08-Apr-18 09:01 46.651967 -111.974227 168 10262ft 130kts
08-Apr-18 09:02 46.618114 -111.958394 188 11191ft 123kts
08-Apr-18 09:03 46.610890 -111.985184 284 11971ft 91kts
08-Apr-18 09:04 46.618377 -112.031173 282 11983ft 135kts
08-Apr-18 09:05 46.627033 -112.088231 282 11981ft 150kts
08-Apr-18 09:06 46.636031 -112.148181 282 11980ft 152kts
08-Apr-18 09:07 46.645029 -112.208410 282 11980ft 152kts
08-Apr-18 09:08 46.653971 -112.268505 282 11979ft 151kts
08-Apr-18 09:09 46.662746 -112.327713 282 11979ft 147kts
08-Apr-18 09:10 46.671406 -112.386353 282 11979ft 150kts
08-Apr-18 09:11 46.680176 -112.445948 282 11996ft 151kts
08-Apr-18 09:12 46.688985 -112.506061 282 11996ft 152kts
08-Apr-18 09:13 46.697667 -112.565537 282 11996ft 152kts
08-Apr-18 09:14 46.706325 -112.625082 282 12002ft 152kts
08-Apr-18 09:15 46.714849 -112.684111 281 12014ft 152kts
08-Apr-18 09:16 46.723667 -112.744533 282 12020ft 153kts
08-Apr-18 09:17 46.732703 -112.805228 282 12025ft 153kts
08-Apr-18 09:18 46.741748 -112.866137 281 12025ft 153kts
08-Apr-18 09:19 46.750702 -112.926676 281 12026ft 153kts
08-Apr-18 09:20 46.759792 -112.988446 280 12029ft 158kts
08-Apr-18 09:21 46.769073 -113.051704 280 12032ft 160kts
08-Apr-18 09:22 46.778361 -113.115284 280 12036ft 160kts
08-Apr-18 09:23 46.787411 -113.178382 274 12035ft 160kts
08-Apr-18 09:24 46.753292 -113.226914 256 10997ft 193kts
08-Apr-18 09:25 46.736629 -113.303058 259 10048ft 183kts
08-Apr-18 09:26 46.722735 -113.370249 259 10043ft 171kts
08-Apr-18 09:27 46.708895 -113.437549 259 9881ft 176kts
08-Apr-18 09:28 46.694856 -113.506163 259 9662ft 178kts
08-Apr-18 09:29 46.680453 -113.575818 259 9411ft 180kts
08-Apr-18 09:30 46.666060 -113.645143 260 9190ft 178kts
08-Apr-18 09:31 46.651808 -113.713569 259 8992ft 179kts
08-Apr-18 09:32 46.637477 -113.782144 259 8834ft 175kts
08-Apr-18 09:33 46.625459 -113.848955 269 9003ft 165kts
08-Apr-18 09:34 46.619594 -113.916471 268 8823ft 168kts
08-Apr-18 09:35 46.616090 -113.980568 281 8418ft 174kts
08-Apr-18 09:36 46.634630 -114.043566 313 7409ft 169kts
08-Apr-18 09:37 46.671913 -114.079971 343 6621ft 152kts
08-Apr-18 09:38 46.712218 -114.083466 7 6389ft 158kts
08-Apr-18 09:39 46.754462 -114.074477 7 6016ft 144kts
08-Apr-18 09:40 46.792444 -114.058242 30 5675ft 137kts
08-Apr-18 09:41 46.816949 -114.034411 31 5140ft 101kts
08-Apr-18 09:42 46.841307 -114.013201 17 4820ft 99kts
08-Apr-18 09:43 46.868481 -114.016646 337 4533ft 99kts
08-Apr-18 09:44 46.889037 -114.045438 315 3926ft 102kts
08-Apr-18 09:45 46.906530 -114.075216 316 3300ft 87kts
08-Apr-18 09:46 46.913015 -114.084565 34 3207ft 7kts
08-Apr-18 09:47 46.916078 -114.087934 312 3207ft 14kts
08-Apr-18 09:48 46.919179 -114.088737 39 3207ft 10kts

Navigation Log

Ident Type
Flight plan parsing failed, navigation log unavailable